Weather at Tuktoyaktuk Airport

Public forecast

Using degrees Celsius for public forecast. Weather courtesy of forecast.io.

Current aviation weather report (METAR) for Tuktoyaktuk Airport

Retrieved 2020/10/22 16:13 UTC (16 minutes ago):

CYUB 221613Z CCA 25013KT 1SM -SN DRSN VV021 M06/M07 A3042 RMK SN8 SLP303

Aviation forecast (TAF) for Tuktoyaktuk Airport

Retrieved 2020/10/22 15:42 UTC (47 minutes ago):

TAF CYUB 221439Z 2215/2303 24012KT 6SM -SN SCT010 OVC025 TEMPO 2215/2303 2SM -SN OVC010 BECMG 2218/2220 23018G28KT RMK NXT FCST BY 221900Z